TimeMST,TemperatureF,Dew PointF,Humidity,Sea Level PressureIn,VisibilityMPH,Wind Direction,Wind SpeedMPH,Gust SpeedMPH,PrecipitationIn,Events,Conditions,WindDirDegrees,DateUTC
12:52 AM,-6.0,-11.0,79,30.36,8.0,NNE,3.5,-,N/A,,Clear,20,2014-01-08 07:52:00
1:52 AM,-5.1,-9.0,83,30.37,9.0,NNW,3.5,-,N/A,,Mostly Cloudy,330,2014-01-08 08:52:00
2:52 AM,-2.0,-6.0,83,30.37,10.0,Calm,Calm,-,N/A,,Overcast,0,2014-01-08 09:52:00
3:52 AM,-0.0,-5.1,79,30.33,10.0,Calm,Calm,-,N/A,,Overcast,0,2014-01-08 10:52:00
4:52 AM,-0.9,-6.0,79,30.32,10.0,WSW,3.5,-,N/A,,Overcast,250,2014-01-08 11:52:00
5:52 AM,-0.9,-6.0,79,30.38,10.0,Calm,Calm,-,N/A,,Scattered Clouds,0,2014-01-08 12:52:00
6:52 AM,-8.0,-11.9,83,30.47,10.0,WSW,6.9,-,N/A,,Clear,240,2014-01-08 13:52:00
7:52 AM,-5.1,-9.9,80,30.48,10.0,West,5.8,-,N/A,,Clear,260,2014-01-08 14:52:00
8:52 AM,3.0,-2.9,76,30.48,10.0,East,5.8,-,N/A,,Clear,90,2014-01-08 15:52:00
9:52 AM,1.9,-4.0,76,30.49,10.0,ESE,5.8,-,N/A,,Clear,120,2014-01-08 16:52:00
10:52 AM,7.0,-0.0,73,30.46,10.0,SSE,3.5,-,N/A,,Clear,150,2014-01-08 17:52:00
11:52 AM,12.0,3.9,70,30.41,10.0,SSW,6.9,-,N/A,,Partly Cloudy,210,2014-01-08 18:52:00
12:52 PM,18.0,8.1,65,30.31,10.0,SE,3.5,-,N/A,,Clear,140,2014-01-08 19:52:00
1:52 PM,21.9,10.0,60,30.27,10.0,Calm,Calm,-,N/A,,Clear,0,2014-01-08 20:52:00
2:52 PM,21.9,10.9,63,30.26,10.0,South,3.5,-,N/A,,Partly Cloudy,190,2014-01-08 21:52:00
3:52 PM,21.9,10.9,63,30.27,10.0,Calm,Calm,-,N/A,,Overcast,0,2014-01-08 22:52:00
4:52 PM,23.0,14.0,68,30.27,10.0,Calm,Calm,-,N/A,,Overcast,0,2014-01-08 23:52:00
5:52 PM,19.9,12.9,74,30.29,10.0,North,10.4,-,N/A,,Overcast,10,2014-01-09 00:52:00
6:52 PM,14.0,8.1,77,30.39,10.0,Calm,Calm,-,N/A,,Mostly Cloudy,0,2014-01-09 01:52:00
7:52 PM,10.9,6.1,81,30.40,10.0,North,4.6,-,N/A,,Clear,360,2014-01-09 02:52:00
8:52 PM,10.9,5.0,77,30.35,10.0,NW,8.1,-,N/A,,Clear,310,2014-01-09 03:52:00
9:52 PM,3.9,1.0,88,30.40,10.0,WNW,5.8,-,N/A,,Mostly Cloudy,300,2014-01-09 04:52:00
10:52 PM,1.0,-0.9,91,30.39,8.0,Calm,Calm,-,N/A,,Mostly Cloudy,0,2014-01-09 05:52:00
11:52 PM,-0.0,-4.0,83,30.36,6.0,Calm,Calm,-,N/A,,Scattered Clouds,0,2014-01-09 06:52:00